createdAt,value
2019-06-07T00:00:37.267Z,14.12
2019-06-07T00:01:19.448Z,14.08
2019-06-07T00:02:18.861Z,14.13
2019-06-07T00:03:27.605Z,13.96
2019-06-07T00:04:21.318Z,14.04
2019-06-07T00:05:19.647Z,14.05
2019-06-07T00:06:24.359Z,14.05
2019-06-07T00:07:21.861Z,14.13
2019-06-07T00:08:24.934Z,14.03
2019-06-07T00:09:22.346Z,14.15
2019-06-07T00:10:35.244Z,14.21
2019-06-07T00:11:20.700Z,14.12
2019-06-07T00:12:21.418Z,13.96
2019-06-07T00:13:20.385Z,13.96
2019-06-07T00:14:21.131Z,13.93
2019-06-07T00:15:26.553Z,13.91
2019-06-07T00:16:22.899Z,13.82
2019-06-07T00:17:20.275Z,13.71
2019-06-07T00:18:25.501Z,13.65
2019-06-07T00:19:19.809Z,13.53
2019-06-07T00:20:23.431Z,13.53
2019-06-07T00:21:20.539Z,13.45
2019-06-07T00:22:32.581Z,13.54
2019-06-07T00:23:22.733Z,13.54
2019-06-07T00:24:21.946Z,13.65
2019-06-07T00:25:24.297Z,13.73
2019-06-07T00:26:21.407Z,13.67
2019-06-07T00:27:22.636Z,13.71
2019-06-07T00:28:21.015Z,13.71
2019-06-07T00:29:22.016Z,13.72
2019-06-07T00:30:50.711Z,13.75
2019-06-07T00:31:24.160Z,13.79
2019-06-07T00:32:22.284Z,13.68
2019-06-07T00:33:24.461Z,13.72
2019-06-07T00:34:22.982Z,13.57
2019-06-07T00:35:22.520Z,13.61
2019-06-07T00:36:23.215Z,13.63
2019-06-07T00:37:25.272Z,13.72
2019-06-07T00:38:22.332Z,13.72
2019-06-07T00:39:25.586Z,13.72
2019-06-07T00:40:31.100Z,13.91
2019-06-07T00:41:22.740Z,13.88
2019-06-07T00:42:24.217Z,13.98
2019-06-07T00:43:28.175Z,14.11
2019-06-07T00:44:23.623Z,14.03
2019-06-07T00:45:24.640Z,13.97
2019-06-07T00:46:25.304Z,14.04
2019-06-07T00:47:25.535Z,14.23
2019-06-07T00:48:30.852Z,14.09
2019-06-07T00:49:40.076Z,14.21
2019-06-07T00:50:24.469Z,14.23
2019-06-07T00:51:24.227Z,14.23
2019-06-07T00:53:11.615Z,14.41
2019-06-07T00:53:31.629Z,14.46
2019-06-07T00:54:25.022Z,14.41
2019-06-07T00:55:27.564Z,14.34
2019-06-07T00:56:24.699Z,14.46
2019-06-07T00:57:24.838Z,14.23
2019-06-07T00:58:29.161Z,14.12
2019-06-07T00:59:29.123Z,14.05
2019-06-07T01:00:25.674Z,13.98
2019-06-07T01:01:25.624Z,13.91
2019-06-07T01:02:29.196Z,13.85
2019-06-07T01:03:26.031Z,13.85
2019-06-07T01:04:27.008Z,13.96
2019-06-07T01:05:30.967Z,13.91
2019-06-07T01:06:25.995Z,14.05
2019-06-07T01:07:26.136Z,14.04
2019-06-07T01:08:29.850Z,14.08
2019-06-07T01:09:26.388Z,14.08
2019-06-07T01:10:51.548Z,14.13
2019-06-07T01:11:26.651Z,14.30
2019-06-07T01:12:27.246Z,14.27
2019-06-07T01:13:27.141Z,14.26
2019-06-07T01:14:28.365Z,14.27
2019-06-07T01:15:29.160Z,14.27
2019-06-07T01:16:27.312Z,14.23
2019-06-07T01:17:41.325Z,14.19
2019-06-07T01:18:39.193Z,14.26
2019-06-07T01:19:28.045Z,14.30
2019-06-07T01:20:27.840Z,14.22
2019-06-07T01:21:29.496Z,14.09
2019-06-07T01:22:29.351Z,14.16
2019-06-07T01:24:04.785Z,14.01
2019-06-07T01:24:28.351Z,13.91
2019-06-07T01:25:28.945Z,13.85
2019-06-07T01:26:30.264Z,13.83
2019-06-07T01:27:28.910Z,13.83
2019-06-07T01:28:30.154Z,13.78
2019-06-07T01:29:30.888Z,13.73
2019-06-07T01:30:29.482Z,13.71
2019-06-07T01:31:31.653Z,13.71
2019-06-07T01:32:31.772Z,13.76
2019-06-07T01:33:49.782Z,13.65
2019-06-07T01:34:29.718Z,13.47
2019-06-07T01:35:30.173Z,13.30
2019-06-07T01:36:31.081Z,13.27
2019-06-07T01:37:30.472Z,13.42
2019-06-07T01:38:30.324Z,13.40
2019-06-07T01:39:31.793Z,13.39
2019-06-07T01:40:32.782Z,13.45
2019-06-07T01:41:30.935Z,13.43
2019-06-07T01:42:31.132Z,13.46
2019-06-07T01:43:31.277Z,13.47
2019-06-07T01:44:31.438Z,13.54
2019-06-07T01:45:31.306Z,13.53
2019-06-07T01:46:31.271Z,13.68
2019-06-07T01:47:32.327Z,13.68
2019-06-07T01:48:48.555Z,13.80
2019-06-07T01:49:31.643Z,13.91
2019-06-07T01:50:31.763Z,13.82
2019-06-07T01:51:31.985Z,13.82
2019-06-07T01:52:32.027Z,13.85
2019-06-07T01:53:32.165Z,13.98
2019-06-07T01:55:32.981Z,13.91
2019-06-07T01:56:32.563Z,13.79
2019-06-07T01:57:45.642Z,13.82
2019-06-07T01:58:32.825Z,13.67
2019-06-07T01:59:33.039Z,13.67
2019-06-07T02:00:33.087Z,13.72
2019-06-07T02:01:35.268Z,13.76
2019-06-07T02:02:33.345Z,13.72
2019-06-07T02:03:33.662Z,13.65
2019-06-07T02:04:33.848Z,13.49
2019-06-07T02:05:33.738Z,13.40
2019-06-07T02:06:33.868Z,13.35
2019-06-07T02:07:33.999Z,13.26
2019-06-07T02:08:34.539Z,13.23
2019-06-07T02:09:34.261Z,13.38
2019-06-07T02:10:34.397Z,13.20
2019-06-07T02:11:34.526Z,13.36
2019-06-07T02:12:42.855Z,13.39
2019-06-07T02:13:34.791Z,13.54
2019-06-07T02:14:34.920Z,13.45
2019-06-07T02:15:36.644Z,13.35
2019-06-07T02:16:35.218Z,13.35
2019-06-07T02:17:35.310Z,13.04
2019-06-07T02:18:35.442Z,12.95
2019-06-07T02:19:35.577Z,12.91
2019-06-07T02:20:35.706Z,12.91
2019-06-07T02:21:35.838Z,12.93
2019-06-07T02:22:35.968Z,13.14
2019-06-07T02:23:36.106Z,13.19
2019-06-07T02:24:36.653Z,13.30
2019-06-07T02:25:43.842Z,13.38
2019-06-07T02:26:36.488Z,13.40
2019-06-07T02:27:36.621Z,13.51
2019-06-07T02:28:45.381Z,13.54
2019-06-07T02:29:36.921Z,13.53
2019-06-07T02:30:47.205Z,13.61
2019-06-07T02:31:39.810Z,13.73
2019-06-07T02:32:37.438Z,13.71
2019-06-07T02:33:40.225Z,13.85
2019-06-07T02:34:39.628Z,13.82
2019-06-07T02:35:40.453Z,13.85
2019-06-07T02:36:41.467Z,13.94
2019-06-07T02:37:37.931Z,13.93
2019-06-07T02:38:38.167Z,14.00
2019-06-07T02:39:40.970Z,14.00
2019-06-07T02:40:38.328Z,14.09
2019-06-07T02:41:40.013Z,14.08
2019-06-07T02:42:42.731Z,13.96
2019-06-07T02:43:38.722Z,14.05
2019-06-07T02:44:40.237Z,13.96
2019-06-07T02:45:43.524Z,14.05
2019-06-07T02:46:46.543Z,14.11
2019-06-07T02:47:39.240Z,14.18
2019-06-07T02:48:40.321Z,14.13
2019-06-07T02:49:41.426Z,14.00
2019-06-07T02:50:39.627Z,14.05
2019-06-07T02:51:41.537Z,13.93
2019-06-07T02:52:40.919Z,14.04
2019-06-07T02:53:40.526Z,14.08
2019-06-07T02:54:40.972Z,14.00
2019-06-07T02:56:33.286Z,14.00
2019-06-07T02:56:56.237Z,13.98
2019-06-07T02:57:42.284Z,14.00
2019-06-07T02:58:41.954Z,14.05
2019-06-07T03:00:05.338Z,14.08
2019-06-07T03:00:58.920Z,14.01
2019-06-07T03:01:42.580Z,14.11
2019-06-07T03:02:41.721Z,14.18
2019-06-07T03:03:41.336Z,14.12
2019-06-07T03:04:44.281Z,14.18
2019-06-07T03:05:41.601Z,14.19
2019-06-07T03:06:43.796Z,14.12
2019-06-07T03:07:45.052Z,14.22
2019-06-07T03:08:42.019Z,14.23
2019-06-07T03:09:42.127Z,14.31
2019-06-07T03:10:42.269Z,14.30
2019-06-07T03:11:42.392Z,14.19
2019-06-07T03:12:42.517Z,14.21
2019-06-07T03:13:42.651Z,14.26
2019-06-07T03:14:42.776Z,14.18
2019-06-07T03:15:50.015Z,14.15
2019-06-07T03:16:43.050Z,14.18
2019-06-07T03:17:43.180Z,14.12
2019-06-07T03:18:43.327Z,14.19
2019-06-07T03:19:43.455Z,14.18
2019-06-07T03:20:43.587Z,14.15
2019-06-07T03:21:43.715Z,14.22
2019-06-07T03:22:43.844Z,14.18
2019-06-07T03:23:43.976Z,13.96
2019-06-07T03:24:44.261Z,14.12
2019-06-07T03:25:44.237Z,14.15
2019-06-07T03:27:32.305Z,14.13
2019-06-07T03:27:49.806Z,14.12
2019-06-07T03:28:44.633Z,14.09
2019-06-07T03:29:44.759Z,14.18
2019-06-07T03:31:00.660Z,14.26
2019-06-07T03:31:47.714Z,14.27
2019-06-07T03:32:47.724Z,14.26
2019-06-07T03:33:45.782Z,14.27
2019-06-07T03:34:45.407Z,14.23
2019-06-07T03:35:45.555Z,14.27
2019-06-07T03:36:45.669Z,14.28
2019-06-07T03:37:45.806Z,14.21
2019-06-07T03:38:45.947Z,14.19
2019-06-07T03:39:46.074Z,14.33
2019-06-07T03:40:46.199Z,14.28
2019-06-07T03:42:05.318Z,14.23
2019-06-07T03:42:46.473Z,14.34
2019-06-07T03:43:46.605Z,14.23
2019-06-07T03:44:46.743Z,14.44
2019-06-07T03:45:46.866Z,14.37
2019-06-07T03:46:46.991Z,14.26
2019-06-07T03:47:47.122Z,14.36
2019-06-07T03:48:47.257Z,14.44
2019-06-07T03:49:47.390Z,14.30
2019-06-07T03:50:47.524Z,14.19
2019-06-07T03:51:47.667Z,14.18
2019-06-07T03:52:47.782Z,14.11
2019-06-07T03:53:47.912Z,14.13
2019-06-07T03:54:48.068Z,14.09
2019-06-07T03:55:48.170Z,14.09
2019-06-07T03:56:48.310Z,14.13
2019-06-07T03:58:29.829Z,14.13
2019-06-07T03:58:50.441Z,14.16
2019-06-07T03:59:48.707Z,14.08
2019-06-07T04:00:48.843Z,14.13
2019-06-07T04:01:48.971Z,14.23
2019-06-07T04:02:49.123Z,14.26
2019-06-07T04:03:51.581Z,14.30
2019-06-07T04:04:49.384Z,14.36
2019-06-07T04:05:49.755Z,14.33
2019-06-07T04:06:49.653Z,14.44
2019-06-07T04:07:49.788Z,14.36
2019-06-07T04:08:49.966Z,14.40
2019-06-07T04:09:50.070Z,14.33
2019-06-07T04:10:59.706Z,14.41
2019-06-07T04:11:50.337Z,14.28
2019-06-07T04:12:50.510Z,14.22
2019-06-07T04:13:50.609Z,14.28
2019-06-07T04:14:50.742Z,14.26
2019-06-07T04:15:51.133Z,14.27
2019-06-07T04:16:51.157Z,14.28
2019-06-07T04:18:01.728Z,14.31
2019-06-07T04:18:51.279Z,14.40
2019-06-07T04:19:51.430Z,14.38
2019-06-07T04:20:51.567Z,14.30
2019-06-07T04:21:51.695Z,14.31
2019-06-07T04:22:51.824Z,14.31
2019-06-07T04:23:51.953Z,14.40
2019-06-07T04:24:52.296Z,14.33
2019-06-07T04:25:52.249Z,14.38
2019-06-07T04:26:52.387Z,14.49
2019-06-07T04:27:52.551Z,14.38
2019-06-07T04:29:31.791Z,14.44
2019-06-07T04:30:06.538Z,14.48
2019-06-07T04:30:52.927Z,14.49
2019-06-07T04:31:53.066Z,14.51
2019-06-07T04:32:53.193Z,14.48
2019-06-07T04:33:53.369Z,14.52
2019-06-07T04:34:53.461Z,14.44
2019-06-07T04:35:53.619Z,14.49
2019-06-07T04:36:59.200Z,14.55
2019-06-07T04:37:53.872Z,14.53
2019-06-07T04:38:54.005Z,14.55
2019-06-07T04:39:54.174Z,14.58
2019-06-07T04:40:54.309Z,14.41
2019-06-07T04:41:54.437Z,14.55
2019-06-07T04:42:54.564Z,14.55
2019-06-07T04:43:54.716Z,14.52
2019-06-07T04:44:54.847Z,14.53
2019-06-07T04:45:54.971Z,14.48
2019-06-07T04:46:55.131Z,14.45
2019-06-07T04:47:55.291Z,14.52
2019-06-07T04:48:55.395Z,14.52
2019-06-07T04:49:55.530Z,14.61
2019-06-07T04:50:55.669Z,14.51
2019-06-07T04:51:55.798Z,14.52
2019-06-07T04:52:55.923Z,14.53
2019-06-07T04:53:56.078Z,14.55
2019-06-07T04:54:56.205Z,14.70
2019-06-07T04:55:56.337Z,14.53
2019-06-07T04:56:56.469Z,14.55
2019-06-07T04:57:56.618Z,14.58
2019-06-07T04:58:56.746Z,14.59
2019-06-07T05:00:46.159Z,14.59
2019-06-07T05:01:03.168Z,14.66
2019-06-07T05:01:57.150Z,14.59
2019-06-07T05:02:57.282Z,14.66
2019-06-07T05:03:57.432Z,14.59
2019-06-07T05:04:57.572Z,14.69
2019-06-07T05:05:57.693Z,14.67
2019-06-07T05:06:57.870Z,14.63
2019-06-07T05:07:57.947Z,14.63
2019-06-07T05:08:58.086Z,14.70
2019-06-07T05:09:58.220Z,14.66
2019-06-07T05:10:58.349Z,14.66
2019-06-07T05:11:58.491Z,14.67
2019-06-07T05:12:58.619Z,14.59
2019-06-07T05:13:58.755Z,14.71
2019-06-07T05:14:58.925Z,14.69
2019-06-07T05:15:59.035Z,14.69
2019-06-07T05:16:59.167Z,14.66
2019-06-07T05:17:59.299Z,14.63
2019-06-07T05:18:59.459Z,14.73
2019-06-07T05:19:59.582Z,14.77
2019-06-07T05:20:59.819Z,14.69
2019-06-07T05:22:04.391Z,14.64
2019-06-07T05:22:59.986Z,14.67
2019-06-07T05:24:07.644Z,14.77
2019-06-07T05:25:00.250Z,14.73
2019-06-07T05:26:00.379Z,14.79
2019-06-07T05:27:00.534Z,14.78
2019-06-07T05:28:00.651Z,14.77
2019-06-07T05:29:00.781Z,14.69
2019-06-07T05:30:13.639Z,14.74
2019-06-07T05:31:05.089Z,14.69
2019-06-07T05:32:01.193Z,14.69
2019-06-07T05:33:01.309Z,14.83
2019-06-07T05:34:01.451Z,14.82
2019-06-07T05:35:01.638Z,14.77
2019-06-07T05:36:01.727Z,14.77
2019-06-07T05:37:11.805Z,14.83
2019-06-07T05:38:02.003Z,14.95
2019-06-07T05:39:02.154Z,14.85
2019-06-07T05:40:02.261Z,14.85
2019-06-07T05:41:02.397Z,14.89
2019-06-07T05:42:02.534Z,14.99
2019-06-07T05:43:02.657Z,14.93
2019-06-07T05:44:12.706Z,14.95
2019-06-07T05:45:02.915Z,14.87
2019-06-07T05:46:03.039Z,14.92
2019-06-07T05:47:03.174Z,14.87
2019-06-07T05:48:03.417Z,14.85
2019-06-07T05:49:03.429Z,14.86
2019-06-07T05:50:03.585Z,14.85
2019-06-07T05:51:03.691Z,14.99
2019-06-07T05:52:03.823Z,14.96
2019-06-07T05:53:03.957Z,14.92
2019-06-07T05:54:04.092Z,14.93
2019-06-07T05:55:04.239Z,15.03
2019-06-07T05:56:04.611Z,14.93
2019-06-07T05:57:04.504Z,14.92
2019-06-07T05:58:04.637Z,14.97
2019-06-07T05:59:04.780Z,15.03
2019-06-07T06:00:04.901Z,14.95
2019-06-07T06:01:41.403Z,15.05
2019-06-07T06:02:21.770Z,15.01
2019-06-07T06:03:06.248Z,15.01
2019-06-07T06:04:05.431Z,15.03
2019-06-07T06:05:05.563Z,15.07
2019-06-07T06:06:05.716Z,15.07
2019-06-07T06:07:05.844Z,15.15
2019-06-07T06:08:05.984Z,15.12
2019-06-07T06:09:13.931Z,15.15
2019-06-07T06:10:06.229Z,15.23
2019-06-07T06:11:06.429Z,15.15
2019-06-07T06:12:06.481Z,15.12
2019-06-07T06:13:06.615Z,15.15
2019-06-07T06:14:08.347Z,15.20
2019-06-07T06:15:06.876Z,15.17
2019-06-07T06:16:07.006Z,15.03
2019-06-07T06:17:07.142Z,15.07
2019-06-07T06:18:07.295Z,15.12
2019-06-07T06:19:07.416Z,15.14
2019-06-07T06:20:07.551Z,15.19
2019-06-07T06:21:17.952Z,15.19
2019-06-07T06:22:07.838Z,15.19
2019-06-07T06:23:07.974Z,15.17
2019-06-07T06:24:08.087Z,15.25
2019-06-07T06:25:41.252Z,15.23
2019-06-07T06:26:08.365Z,15.26
2019-06-07T06:27:28.559Z,15.27
2019-06-07T06:28:11.956Z,15.26
2019-06-07T06:29:08.776Z,15.27
2019-06-07T06:30:08.906Z,15.26
2019-06-07T06:31:09.045Z,15.25
2019-06-07T06:32:41.254Z,15.30
2019-06-07T06:33:27.190Z,15.29
2019-06-07T06:34:09.451Z,15.36
2019-06-07T06:35:09.597Z,15.45
2019-06-07T06:36:09.721Z,15.33
2019-06-07T06:37:09.855Z,15.45
2019-06-07T06:38:09.987Z,15.41
2019-06-07T06:39:10.138Z,15.52
2019-06-07T06:40:10.276Z,15.48
2019-06-07T06:41:16.052Z,15.44
2019-06-07T06:42:10.522Z,15.52
2019-06-07T06:43:10.670Z,15.56
2019-06-07T06:44:10.797Z,15.51
2019-06-07T06:45:10.928Z,15.56
2019-06-07T06:46:11.074Z,15.52
2019-06-07T06:47:11.205Z,15.51
2019-06-07T06:48:11.331Z,15.62
2019-06-07T06:49:11.457Z,15.52
2019-06-07T06:50:11.617Z,15.66
2019-06-07T06:51:11.748Z,15.68
2019-06-07T06:52:11.875Z,15.59
2019-06-07T06:53:12.030Z,15.60
2019-06-07T06:54:12.166Z,15.63
2019-06-07T06:55:12.291Z,15.62
2019-06-07T06:56:12.416Z,15.70
2019-06-07T06:57:19.581Z,15.73
2019-06-07T06:58:12.702Z,15.73
2019-06-07T06:59:37.563Z,15.81
2019-06-07T07:00:13.023Z,15.78
2019-06-07T07:01:13.123Z,15.87
2019-06-07T07:02:13.252Z,15.90
2019-06-07T07:04:13.721Z,15.84
2019-06-07T07:05:13.656Z,15.96
2019-06-07T07:06:25.857Z,15.95
2019-06-07T07:07:13.929Z,16.02
2019-06-07T07:08:14.061Z,15.98
2019-06-07T07:09:14.196Z,16.03
2019-06-07T07:10:14.327Z,16.08
2019-06-07T07:11:14.471Z,16.03
2019-06-07T07:12:15.051Z,16.10
2019-06-07T07:13:14.715Z,16.16
2019-06-07T07:14:14.849Z,16.18
2019-06-07T07:15:14.987Z,16.17
2019-06-07T07:16:15.118Z,16.17
2019-06-07T07:17:15.249Z,16.21
2019-06-07T07:18:15.405Z,16.25
2019-06-07T07:19:15.513Z,16.32
2019-06-07T07:20:15.653Z,16.22
2019-06-07T07:21:15.768Z,16.24
2019-06-07T07:22:15.906Z,16.24
2019-06-07T07:23:17.421Z,16.22
2019-06-07T07:24:21.495Z,16.18
2019-06-07T07:25:16.298Z,16.25
2019-06-07T07:26:16.431Z,16.13
2019-06-07T07:27:16.569Z,16.32
2019-06-07T07:28:16.714Z,16.26
2019-06-07T07:29:16.840Z,16.36
2019-06-07T07:30:36.307Z,16.22
2019-06-07T07:31:17.109Z,16.25
2019-06-07T07:32:17.254Z,16.18
2019-06-07T07:33:17.366Z,16.25
2019-06-07T07:34:34.634Z,16.28
2019-06-07T07:35:17.624Z,16.25
2019-06-07T07:36:37.529Z,16.28
2019-06-07T07:37:17.899Z,16.37
2019-06-07T07:38:18.025Z,16.33
2019-06-07T07:39:18.163Z,16.37
2019-06-07T07:41:18.415Z,16.44
2019-06-07T07:42:21.581Z,16.44
2019-06-07T07:43:18.692Z,16.47
2019-06-07T07:44:18.823Z,16.52
2019-06-07T07:45:18.968Z,16.55
2019-06-07T07:46:29.145Z,16.58
2019-06-07T07:47:19.253Z,16.58
2019-06-07T07:48:19.385Z,16.65
2019-06-07T07:49:19.508Z,16.64
2019-06-07T07:50:19.639Z,16.62
2019-06-07T07:51:19.771Z,16.69
2019-06-07T07:52:19.906Z,16.72
2019-06-07T07:53:20.154Z,16.70
2019-06-07T07:54:20.237Z,16.72
2019-06-07T07:55:20.413Z,16.76
2019-06-07T07:56:20.473Z,16.80
2019-06-07T07:57:20.623Z,16.73
2019-06-07T07:58:20.755Z,16.76
2019-06-07T07:59:38.989Z,16.76
2019-06-07T08:00:53.925Z,16.74
2019-06-07T08:01:21.146Z,16.73
2019-06-07T08:02:21.274Z,16.70
2019-06-07T08:03:21.425Z,16.65
2019-06-07T08:04:39.860Z,16.65
2019-06-07T08:05:29.009Z,16.65
2019-06-07T08:06:21.824Z,16.62
2019-06-07T08:07:21.982Z,16.67
2019-06-07T08:08:22.104Z,16.70
2019-06-07T08:09:22.234Z,16.69
2019-06-07T08:10:22.420Z,16.80
2019-06-07T08:11:22.592Z,16.77
2019-06-07T08:12:22.678Z,16.77
2019-06-07T08:13:26.608Z,16.79
2019-06-07T08:14:22.946Z,16.91
2019-06-07T08:15:23.079Z,16.84
2019-06-07T08:16:23.216Z,16.91
2019-06-07T08:17:23.336Z,16.98
2019-06-07T08:18:23.483Z,17.06
2019-06-07T08:19:23.639Z,16.98
2019-06-07T08:20:23.767Z,17.01
2019-06-07T08:21:26.721Z,16.98
2019-06-07T08:22:24.049Z,17.16
2019-06-07T08:23:24.182Z,17.07
2019-06-07T08:24:24.318Z,17.06
2019-06-07T08:25:24.454Z,17.13
2019-06-07T08:26:24.600Z,17.07
2019-06-07T08:27:26.762Z,17.14
2019-06-07T08:28:24.839Z,17.17
2019-06-07T08:29:24.976Z,17.25
2019-06-07T08:30:48.075Z,17.30
2019-06-07T08:31:25.269Z,17.30
2019-06-07T08:32:25.397Z,17.32
2019-06-07T08:33:26.850Z,17.28
2019-06-07T08:34:25.704Z,17.16
2019-06-07T08:36:41.196Z,17.28
2019-06-07T08:38:13.234Z,17.30
2019-06-07T08:38:33.984Z,17.17
2019-06-07T08:39:26.338Z,17.20
2019-06-07T08:40:26.469Z,17.20
2019-06-07T08:41:26.606Z,17.24
2019-06-07T08:42:37.034Z,17.28
2019-06-07T08:43:26.864Z,17.31
2019-06-07T08:44:27.000Z,17.37
2019-06-07T08:45:27.133Z,17.32
2019-06-07T08:46:27.260Z,17.24
2019-06-07T08:47:27.401Z,17.37
2019-06-07T08:48:30.116Z,17.37
2019-06-07T08:49:27.661Z,17.46
2019-06-07T08:50:27.791Z,17.50
2019-06-07T08:51:27.920Z,17.50
2019-06-07T08:52:28.068Z,17.50
2019-06-07T08:53:28.201Z,17.53
2019-06-07T08:54:28.335Z,17.59
2019-06-07T08:55:28.507Z,17.59
2019-06-07T08:56:28.602Z,17.59
2019-06-07T08:57:28.741Z,17.65
2019-06-07T08:58:28.881Z,17.73
2019-06-07T08:59:29.004Z,17.62
2019-06-07T09:00:45.669Z,17.68
2019-06-07T09:01:29.331Z,17.71
2019-06-07T09:02:29.413Z,17.73
2019-06-07T09:03:29.545Z,17.81
2019-06-07T09:04:29.694Z,17.79
2019-06-07T09:05:29.824Z,17.84
2019-06-07T09:07:30.074Z,17.90
2019-06-07T09:08:31.033Z,17.91
2019-06-07T09:09:30.373Z,17.90
2019-06-07T09:10:30.480Z,17.94
2019-06-07T09:11:30.630Z,18.01
2019-06-07T09:12:30.763Z,18.01
2019-06-07T09:13:30.883Z,17.84
2019-06-07T09:14:31.018Z,17.94
2019-06-07T09:15:31.148Z,18.01
2019-06-07T09:16:31.285Z,18.02
2019-06-07T09:17:31.415Z,18.09
2019-06-07T09:18:41.865Z,18.06
2019-06-07T09:19:31.691Z,18.02
2019-06-07T09:20:36.675Z,18.09
2019-06-07T09:21:31.965Z,18.12
2019-06-07T09:22:32.101Z,18.08
2019-06-07T09:23:32.223Z,18.30
2019-06-07T09:24:32.367Z,18.28
2019-06-07T09:25:32.504Z,18.30
2019-06-07T09:26:32.652Z,18.27
2019-06-07T09:27:32.779Z,18.42
2019-06-07T09:28:32.903Z,18.33
2019-06-07T09:29:33.032Z,18.39
2019-06-07T09:30:33.169Z,18.48
2019-06-07T09:31:51.333Z,18.42
2019-06-07T09:32:33.426Z,18.48
2019-06-07T09:33:33.560Z,18.41
2019-06-07T09:34:33.710Z,18.54
2019-06-07T09:35:33.826Z,18.49
2019-06-07T09:36:33.961Z,18.46
2019-06-07T09:38:34.227Z,18.52
2019-06-07T09:39:34.367Z,18.46
2019-06-07T09:40:34.492Z,18.48
2019-06-07T09:41:47.479Z,18.45
2019-06-07T09:42:34.762Z,18.60
2019-06-07T09:44:35.035Z,18.57
2019-06-07T09:45:35.168Z,18.58
2019-06-07T09:46:35.291Z,18.56
2019-06-07T09:47:35.427Z,18.56
2019-06-07T09:49:10.097Z,18.63
2019-06-07T09:49:35.701Z,18.66
2019-06-07T09:50:35.838Z,18.64
2019-06-07T09:51:35.954Z,18.57
2019-06-07T09:52:57.231Z,18.60
2019-06-07T09:53:36.237Z,18.70
2019-06-07T09:55:06.034Z,18.67
2019-06-07T09:55:36.508Z,18.75
2019-06-07T09:56:36.660Z,18.66
2019-06-07T09:57:36.779Z,18.71
2019-06-07T09:58:53.962Z,18.78
2019-06-07T09:59:37.046Z,18.76
2019-06-07T10:00:41.448Z,18.79
2019-06-07T10:01:37.314Z,18.91
2019-06-07T10:02:37.455Z,18.86
2019-06-07T10:03:37.611Z,19.00
2019-06-07T10:04:37.727Z,18.94
2019-06-07T10:05:37.867Z,19.17
2019-06-07T10:06:37.997Z,19.13
2019-06-07T10:07:38.130Z,19.16
2019-06-07T10:09:57.129Z,19.27
2019-06-07T10:10:38.564Z,19.26
2019-06-07T10:11:38.684Z,19.20
2019-06-07T10:12:38.828Z,19.27
2019-06-07T10:13:38.962Z,19.32
2019-06-07T10:14:39.090Z,19.35
2019-06-07T10:15:39.240Z,19.42
2019-06-07T10:16:46.769Z,19.39
2019-06-07T10:17:39.494Z,19.32
2019-06-07T10:18:39.642Z,19.34
2019-06-07T10:19:39.777Z,19.41
2019-06-07T10:20:39.928Z,19.38
2019-06-07T10:21:40.058Z,19.41
2019-06-07T10:22:40.185Z,19.56
2019-06-07T10:23:40.315Z,19.52
2019-06-07T10:24:40.460Z,19.50
2019-06-07T10:25:40.591Z,19.68
2019-06-07T10:26:40.717Z,19.68
2019-06-07T10:27:40.850Z,19.38
2019-06-07T10:28:40.995Z,19.41
2019-06-07T10:29:41.107Z,19.56
2019-06-07T10:30:41.260Z,19.62
2019-06-07T10:31:41.400Z,19.68
2019-06-07T10:32:41.542Z,19.74
2019-06-07T10:33:41.662Z,19.74
2019-06-07T10:34:41.799Z,19.63
2019-06-07T10:35:41.936Z,19.64
2019-06-07T10:36:42.117Z,19.62
2019-06-07T10:37:42.204Z,19.67
2019-06-07T10:38:42.343Z,19.49
2019-06-07T10:39:48.569Z,19.50
2019-06-07T10:40:42.600Z,19.50
2019-06-07T10:41:42.744Z,19.60
2019-06-07T10:42:42.884Z,19.68
2019-06-07T10:43:43.016Z,19.70
2019-06-07T10:44:43.157Z,19.74
2019-06-07T10:45:43.384Z,19.70
2019-06-07T10:46:43.421Z,19.60
2019-06-07T10:47:43.552Z,19.56
2019-06-07T10:48:43.689Z,19.71
2019-06-07T10:49:43.833Z,19.71
2019-06-07T10:50:44.012Z,19.64
2019-06-07T10:51:44.104Z,19.71
2019-06-07T10:52:44.248Z,19.63
2019-06-07T10:53:44.373Z,19.68
2019-06-07T10:54:44.508Z,19.87
2019-06-07T10:55:44.639Z,19.87
2019-06-07T10:56:44.789Z,20.00
2019-06-07T10:57:44.913Z,19.96
2019-06-07T10:58:45.038Z,20.07
2019-06-07T10:59:45.179Z,20.14
2019-06-07T11:00:45.322Z,20.18
2019-06-07T11:01:45.451Z,20.25
2019-06-07T11:02:45.591Z,20.32
2019-06-07T11:03:45.722Z,20.27
2019-06-07T11:04:45.860Z,20.39
2019-06-07T11:05:45.993Z,20.36
2019-06-07T11:06:46.131Z,20.32
2019-06-07T11:07:46.269Z,20.44
2019-06-07T11:08:46.427Z,20.41
2019-06-07T11:09:46.548Z,20.52
2019-06-07T11:10:46.688Z,20.60
2019-06-07T11:11:46.809Z,20.70
2019-06-07T11:12:46.947Z,20.65
2019-06-07T11:13:47.080Z,20.70
2019-06-07T11:14:47.206Z,20.70
2019-06-07T11:15:47.355Z,20.75
2019-06-07T11:16:47.498Z,20.82
2019-06-07T11:17:47.629Z,20.73
2019-06-07T11:18:47.765Z,20.89
2019-06-07T11:19:47.891Z,21.00
2019-06-07T11:20:48.036Z,20.95
2019-06-07T11:21:48.163Z,20.98
2019-06-07T11:22:48.303Z,20.92
2019-06-07T11:23:48.443Z,21.04
2019-06-07T11:24:48.590Z,21.08
2019-06-07T11:25:48.706Z,21.10
2019-06-07T11:26:48.833Z,21.11
2019-06-07T11:27:48.963Z,21.19
2019-06-07T11:28:49.100Z,21.13
2019-06-07T11:29:49.230Z,21.11
2019-06-07T11:30:49.375Z,21.13
2019-06-07T11:31:49.503Z,21.13
2019-06-07T11:32:49.634Z,21.16
2019-06-07T11:33:49.796Z,21.26
2019-06-07T11:34:49.912Z,21.29
2019-06-07T11:35:50.034Z,21.29
2019-06-07T11:36:51.120Z,21.34
2019-06-07T11:37:50.304Z,21.30
2019-06-07T11:38:50.443Z,21.43
2019-06-07T11:39:50.589Z,21.30
2019-06-07T11:40:50.719Z,21.40
2019-06-07T11:41:50.848Z,21.45
2019-06-07T11:42:52.876Z,21.45
2019-06-07T11:43:51.130Z,21.41
2019-06-07T11:44:56.659Z,21.48
2019-06-07T11:45:51.403Z,21.55
2019-06-07T11:46:51.549Z,21.71
2019-06-07T11:47:51.720Z,21.73
2019-06-07T11:48:51.816Z,21.78
2019-06-07T11:49:51.963Z,21.78
2019-06-07T11:50:52.155Z,22.00
2019-06-07T11:51:52.245Z,22.03
2019-06-07T11:52:52.373Z,21.96
2019-06-07T11:53:52.520Z,21.98
2019-06-07T11:54:52.656Z,21.94
2019-06-07T11:55:52.799Z,21.91
2019-06-07T11:56:52.947Z,21.84
2019-06-07T11:57:53.070Z,21.93
2019-06-07T11:58:53.207Z,22.03
2019-06-07T11:59:53.350Z,22.11
2019-06-07T12:00:53.479Z,22.18
2019-06-07T12:01:53.638Z,22.16
2019-06-07T12:02:53.976Z,22.13
2019-06-07T12:03:53.896Z,22.16
2019-06-07T12:04:54.029Z,22.23
2019-06-07T12:05:54.201Z,22.33
2019-06-07T12:06:54.310Z,22.49
2019-06-07T12:07:57.036Z,22.48
2019-06-07T12:08:54.588Z,22.55
2019-06-07T12:09:56.755Z,22.62
2019-06-07T12:10:54.853Z,22.66
2019-06-07T12:11:55.006Z,22.74
2019-06-07T12:12:55.170Z,22.68
2019-06-07T12:13:55.280Z,22.76
2019-06-07T12:14:55.431Z,22.78
2019-06-07T12:15:55.574Z,22.81
2019-06-07T12:16:55.731Z,22.83
2019-06-07T12:17:55.859Z,22.85
2019-06-07T12:18:56.005Z,22.91
2019-06-07T12:19:56.142Z,22.92
2019-06-07T12:20:56.316Z,22.89
2019-06-07T12:21:56.450Z,22.89
2019-06-07T12:22:56.582Z,22.96
2019-06-07T12:23:56.710Z,22.95
2019-06-07T12:24:56.887Z,22.96
2019-06-07T12:25:57.035Z,23.03
2019-06-07T12:26:57.146Z,23.04
2019-06-07T12:27:57.322Z,23.08
2019-06-07T12:28:57.453Z,23.13
2019-06-07T12:29:57.580Z,23.15
2019-06-07T12:30:57.765Z,23.22
2019-06-07T12:31:57.869Z,23.26
2019-06-07T12:32:58.011Z,23.25
2019-06-07T12:33:58.156Z,23.15
2019-06-07T12:34:58.320Z,23.29
2019-06-07T12:35:58.466Z,23.26
2019-06-07T12:36:58.607Z,23.33
2019-06-07T12:37:58.750Z,23.45
2019-06-07T12:38:58.871Z,23.41
2019-06-07T12:39:59.018Z,23.42
2019-06-07T12:40:59.146Z,23.39
2019-06-07T12:41:59.299Z,23.49
2019-06-07T12:42:59.432Z,23.60
2019-06-07T12:43:59.582Z,23.67
2019-06-07T12:44:59.724Z,23.67
2019-06-07T12:45:59.869Z,23.60
2019-06-07T12:46:59.994Z,23.67
2019-06-07T12:48:00.151Z,23.67
2019-06-07T12:49:00.288Z,23.81
2019-06-07T12:50:00.423Z,23.91
2019-06-07T12:51:00.557Z,23.82
2019-06-07T12:52:00.686Z,23.96
2019-06-07T12:53:00.837Z,23.96
2019-06-07T12:54:00.972Z,24.07
2019-06-07T12:55:01.126Z,24.13
2019-06-07T12:56:01.248Z,24.00
2019-06-07T12:57:01.378Z,23.96
2019-06-07T12:58:01.511Z,23.96
2019-06-07T12:59:01.657Z,23.91
2019-06-07T13:00:01.861Z,23.96
2019-06-07T13:01:01.929Z,23.97
2019-06-07T13:02:02.627Z,23.92